KCNO

Chino Airport

Chino, California, USA
METAR KCNO 201853Z VRB03KT 10SM CLR 33/M01 A2996 RMK AO2 SLP140 T03281006
Observed Flight Rules
Oct-20 @ 18:53 UTC (28 minutes ago) Visual Flight Rules
Wind Visibility Clouds
Variable at 3 knots 10 miles
  • Clear skies
Temperatures Readings
Current 33°C / 91°F
Dewpoint -1°C / 30°F
Humidity 11%
Altimeter 29.96" Hg
Pressure 1014 hPa
Elevation 207
METAR KCNO 201853Z VRB03KT 10SM CLR 33/M01 A2996 RMK AO2 SLP140 T03281006
Observed Flight Rules
Oct-20 @ 18:53 UTC
(28 minutes ago)
VFR
Wind Visibility
Variable at 3 knots 10 miles
Clouds
  • Clear skies
Temperature Dewpoint
33°C / 91°F -1°C / 30°F
Humidity Altimeter Pressure
11% 29.96" Hg 1014 hPa